sensor_id;sensor_type;location;lat;lon;timestamp;P1;durP1;ratioP1;P2;durP2;ratioP2
1777;SDS011;71547;50.146;8.174;2023-11-19T00:02:12;2.88;;;2.67;;
1777;SDS011;71547;50.146;8.174;2023-11-19T00:04:39;3.00;;;2.80;;
1777;SDS011;71547;50.146;8.174;2023-11-19T00:07:06;2.77;;;2.57;;
1777;SDS011;71547;50.146;8.174;2023-11-19T00:09:36;2.90;;;2.70;;
1777;SDS011;71547;50.146;8.174;2023-11-19T00:12:04;3.00;;;2.80;;
1777;SDS011;71547;50.146;8.174;2023-11-19T00:14:32;3.85;;;2.72;;
1777;SDS011;71547;50.146;8.174;2023-11-19T00:17:00;2.80;;;2.60;;
1777;SDS011;71547;50.146;8.174;2023-11-19T00:19:28;2.53;;;2.33;;
1777;SDS011;71547;50.146;8.174;2023-11-19T00:21:55;3.22;;;2.60;;
1777;SDS011;71547;50.146;8.174;2023-11-19T00:24:22;2.90;;;2.70;;
1777;SDS011;71547;50.146;8.174;2023-11-19T00:26:49;2.90;;;2.70;;
1777;SDS011;71547;50.146;8.174;2023-11-19T00:29:16;3.10;;;2.90;;
1777;SDS011;71547;50.146;8.174;2023-11-19T00:31:45;2.97;;;2.77;;
1777;SDS011;71547;50.146;8.174;2023-11-19T00:34:13;3.25;;;3.05;;
1777;SDS011;71547;50.146;8.174;2023-11-19T00:36:40;3.00;;;2.80;;
1777;SDS011;71547;50.146;8.174;2023-11-19T00:39:08;4.07;;;3.13;;
1777;SDS011;71547;50.146;8.174;2023-11-19T00:41:35;3.30;;;3.10;;
1777;SDS011;71547;50.146;8.174;2023-11-19T00:44:02;3.10;;;2.90;;
1777;SDS011;71547;50.146;8.174;2023-11-19T00:46:30;3.00;;;2.80;;
1777;SDS011;71547;50.146;8.174;2023-11-19T00:48:59;2.87;;;2.67;;
1777;SDS011;71547;50.146;8.174;2023-11-19T00:51:28;2.90;;;2.70;;
1777;SDS011;71547;50.146;8.174;2023-11-19T00:53:57;3.23;;;2.93;;
1777;SDS011;71547;50.146;8.174;2023-11-19T00:56:25;2.57;;;2.37;;
1777;SDS011;71547;50.146;8.174;2023-11-19T00:58:52;3.27;;;3.07;;
1777;SDS011;71547;50.146;8.174;2023-11-19T01:01:19;2.73;;;2.53;;
1777;SDS011;71547;50.146;8.174;2023-11-19T01:03:47;2.83;;;2.63;;
1777;SDS011;71547;50.146;8.174;2023-11-19T01:06:14;2.87;;;2.70;;
1777;SDS011;71547;50.146;8.174;2023-11-19T01:08:43;2.60;;;2.40;;
1777;SDS011;71547;50.146;8.174;2023-11-19T01:11:19;3.10;;;2.90;;
1777;SDS011;71547;50.146;8.174;2023-11-19T01:13:47;3.27;;;3.07;;
1777;SDS011;71547;50.146;8.174;2023-11-19T01:16:14;2.30;;;2.20;;
1777;SDS011;71547;50.146;8.174;2023-11-19T01:18:41;3.10;;;2.90;;
1777;SDS011;71547;50.146;8.174;2023-11-19T01:21:08;2.97;;;2.78;;
1777;SDS011;71547;50.146;8.174;2023-11-19T01:23:35;3.03;;;2.83;;
1777;SDS011;71547;50.146;8.174;2023-11-19T01:26:04;2.80;;;2.60;;
1777;SDS011;71547;50.146;8.174;2023-11-19T01:28:32;2.80;;;2.60;;
1777;SDS011;71547;50.146;8.174;2023-11-19T01:30:59;2.80;;;2.60;;
1777;SDS011;71547;50.146;8.174;2023-11-19T01:33:26;3.03;;;2.83;;
1777;SDS011;71547;50.146;8.174;2023-11-19T01:35:54;3.67;;;3.37;;
1777;SDS011;71547;50.146;8.174;2023-11-19T01:38:22;3.28;;;3.08;;
1777;SDS011;71547;50.146;8.174;2023-11-19T01:40:49;4.32;;;3.92;;
1777;SDS011;71547;50.146;8.174;2023-11-19T01:46:11;13.70;;;4.43;;
1777;SDS011;71547;50.146;8.174;2023-11-19T01:48:40;16.15;;;5.00;;
1777;SDS011;71547;50.146;8.174;2023-11-19T01:51:11;28.67;;;5.27;;
1777;SDS011;71547;50.146;8.174;2023-11-19T01:53:39;5.80;;;3.85;;
1777;SDS011;71547;50.146;8.174;2023-11-19T01:56:07;16.17;;;4.80;;
1777;SDS011;71547;50.146;8.174;2023-11-19T01:58:35;21.77;;;4.70;;
1777;SDS011;71547;50.146;8.174;2023-11-19T02:01:03;34.67;;;5.97;;
1777;SDS011;71547;50.146;8.174;2023-11-19T02:03:33;31.95;;;5.30;;
1777;SDS011;71547;50.146;8.174;2023-11-19T02:06:00;12.18;;;5.00;;
1777;SDS011;71547;50.146;8.174;2023-11-19T02:08:28;4.13;;;3.80;;
1777;SDS011;71547;50.146;8.174;2023-11-19T02:10:56;4.53;;;4.13;;
1777;SDS011;71547;50.146;8.174;2023-11-19T02:13:23;7.97;;;4.57;;
1777;SDS011;71547;50.146;8.174;2023-11-19T02:15:51;60.60;;;6.40;;
1777;SDS011;71547;50.146;8.174;2023-11-19T02:18:20;16.97;;;4.90;;
1777;SDS011;71547;50.146;8.174;2023-11-19T02:20:50;4.05;;;3.63;;
1777;SDS011;71547;50.146;8.174;2023-11-19T02:23:17;9.65;;;4.03;;
1777;SDS011;71547;50.146;8.174;2023-11-19T02:25:47;34.30;;;5.55;;
1777;SDS011;71547;50.146;8.174;2023-11-19T02:28:28;4.80;;;4.30;;
1777;SDS011;71547;50.146;8.174;2023-11-19T02:30:56;4.60;;;4.20;;
1777;SDS011;71547;50.146;8.174;2023-11-19T02:33:23;4.65;;;4.25;;
1777;SDS011;71547;50.146;8.174;2023-11-19T02:35:51;5.43;;;4.85;;
1777;SDS011;71547;50.146;8.174;2023-11-19T02:38:18;11.53;;;5.00;;
1777;SDS011;71547;50.146;8.174;2023-11-19T02:40:46;5.33;;;4.33;;
1777;SDS011;71547;50.146;8.174;2023-11-19T02:43:13;4.27;;;3.50;;
1777;SDS011;71547;50.146;8.174;2023-11-19T02:45:42;6.93;;;4.17;;
1777;SDS011;71547;50.146;8.174;2023-11-19T02:48:12;4.93;;;4.50;;
1777;SDS011;71547;50.146;8.174;2023-11-19T02:50:40;4.03;;;3.63;;
1777;SDS011;71547;50.146;8.174;2023-11-19T02:53:08;3.70;;;3.40;;
1777;SDS011;71547;50.146;8.174;2023-11-19T02:55:35;4.47;;;3.60;;
1777;SDS011;71547;50.146;8.174;2023-11-19T02:58:04;3.57;;;3.27;;
1777;SDS011;71547;50.146;8.174;2023-11-19T03:00:47;2.93;;;2.73;;
1777;SDS011;71547;50.146;8.174;2023-11-19T03:03:20;2.53;;;2.33;;
1777;SDS011;71547;50.146;8.174;2023-11-19T03:05:49;3.03;;;2.83;;
1777;SDS011;71547;50.146;8.174;2023-11-19T03:08:16;2.13;;;2.03;;
1777;SDS011;71547;50.146;8.174;2023-11-19T03:10:46;2.50;;;2.30;;
1777;SDS011;71547;50.146;8.174;2023-11-19T03:13:14;2.37;;;2.17;;
1777;SDS011;71547;50.146;8.174;2023-11-19T03:15:43;2.73;;;2.53;;
1777;SDS011;71547;50.146;8.174;2023-11-19T03:18:12;2.57;;;2.40;;
1777;SDS011;71547;50.146;8.174;2023-11-19T03:20:39;2.10;;;2.00;;
1777;SDS011;71547;50.146;8.174;2023-11-19T03:23:06;2.27;;;2.17;;
1777;SDS011;71547;50.146;8.174;2023-11-19T03:25:33;2.07;;;1.97;;
1777;SDS011;71547;50.146;8.174;2023-11-19T03:28:02;2.10;;;2.00;;
1777;SDS011;71547;50.146;8.174;2023-11-19T03:30:30;2.97;;;2.07;;
1777;SDS011;71547;50.146;8.174;2023-11-19T03:33:00;2.13;;;2.03;;
1777;SDS011;71547;50.146;8.174;2023-11-19T03:35:29;2.10;;;2.00;;
1777;SDS011;71547;50.146;8.174;2023-11-19T03:37:56;1.80;;;1.70;;
1777;SDS011;71547;50.146;8.174;2023-11-19T03:40:23;1.77;;;1.67;;
1777;SDS011;71547;50.146;8.174;2023-11-19T03:42:51;1.30;;;1.20;;
1777;SDS011;71547;50.146;8.174;2023-11-19T03:45:18;1.40;;;1.30;;
1777;SDS011;71547;50.146;8.174;2023-11-19T03:47:46;1.70;;;1.60;;
1777;SDS011;71547;50.146;8.174;2023-11-19T03:50:13;1.73;;;1.63;;
1777;SDS011;71547;50.146;8.174;2023-11-19T03:52:43;1.50;;;1.40;;
1777;SDS011;71547;50.146;8.174;2023-11-19T03:55:10;1.47;;;1.37;;
1777;SDS011;71547;50.146;8.174;2023-11-19T03:57:39;1.30;;;1.20;;
1777;SDS011;71547;50.146;8.174;2023-11-19T04:00:06;1.40;;;1.30;;
1777;SDS011;71547;50.146;8.174;2023-11-19T04:02:37;1.40;;;1.30;;
1777;SDS011;71547;50.146;8.174;2023-11-19T04:05:04;1.60;;;1.50;;
1777;SDS011;71547;50.146;8.174;2023-11-19T04:07:32;1.37;;;1.27;;
1777;SDS011;71547;50.146;8.174;2023-11-19T04:10:01;2.33;;;1.50;;
1777;SDS011;71547;50.146;8.174;2023-11-19T04:12:29;1.93;;;1.50;;
1777;SDS011;71547;50.146;8.174;2023-11-19T04:14:56;1.20;;;1.10;;
1777;SDS011;71547;50.146;8.174;2023-11-19T04:17:26;1.30;;;1.20;;
1777;SDS011;71547;50.146;8.174;2023-11-19T04:19:54;1.47;;;1.37;;
1777;SDS011;71547;50.146;8.174;2023-11-19T04:22:22;1.70;;;1.60;;
1777;SDS011;71547;50.146;8.174;2023-11-19T04:24:49;1.30;;;1.20;;
1777;SDS011;71547;50.146;8.174;2023-11-19T04:27:18;1.80;;;1.50;;
1777;SDS011;71547;50.146;8.174;2023-11-19T04:29:45;1.53;;;1.43;;
1777;SDS011;71547;50.146;8.174;2023-11-19T04:32:13;1.30;;;1.20;;
1777;SDS011;71547;50.146;8.174;2023-11-19T04:34:40;1.30;;;1.20;;
1777;SDS011;71547;50.146;8.174;2023-11-19T04:37:08;1.40;;;1.30;;
1777;SDS011;71547;50.146;8.174;2023-11-19T04:39:38;1.20;;;1.00;;
1777;SDS011;71547;50.146;8.174;2023-11-19T04:42:05;1.10;;;0.93;;
1777;SDS011;71547;50.146;8.174;2023-11-19T04:44:34;1.00;;;0.90;;
1777;SDS011;71547;50.146;8.174;2023-11-19T04:47:01;4.20;;;1.30;;
1777;SDS011;71547;50.146;8.174;2023-11-19T04:49:29;0.80;;;0.80;;
1777;SDS011;71547;50.146;8.174;2023-11-19T04:51:56;1.20;;;1.10;;
1777;SDS011;71547;50.146;8.174;2023-11-19T04:54:24;3.23;;;1.30;;
1777;SDS011;71547;50.146;8.174;2023-11-19T04:56:51;0.80;;;0.80;;
1777;SDS011;71547;50.146;8.174;2023-11-19T04:59:37;0.97;;;0.87;;
1777;SDS011;71547;50.146;8.174;2023-11-19T05:02:04;11.53;;;0.90;;
1777;SDS011;71547;50.146;8.174;2023-11-19T05:04:32;2.97;;;0.80;;
1777;SDS011;71547;50.146;8.174;2023-11-19T05:06:59;0.80;;;0.80;;
1777;SDS011;71547;50.146;8.174;2023-11-19T05:09:26;2.60;;;0.90;;
1777;SDS011;71547;50.146;8.174;2023-11-19T05:11:53;1.00;;;0.77;;
1777;SDS011;71547;50.146;8.174;2023-11-19T05:14:21;0.90;;;0.77;;
1777;SDS011;71547;50.146;8.174;2023-11-19T05:16:49;0.80;;;0.80;;
1777;SDS011;71547;50.146;8.174;2023-11-19T05:19:17;0.80;;;0.60;;
1777;SDS011;71547;50.146;8.174;2023-11-19T05:21:45;0.90;;;0.80;;
1777;SDS011;71547;50.146;8.174;2023-11-19T05:24:12;0.80;;;0.70;;
1777;SDS011;71547;50.146;8.174;2023-11-19T05:26:39;0.90;;;0.80;;
1777;SDS011;71547;50.146;8.174;2023-11-19T05:29:07;0.80;;;0.70;;
1777;SDS011;71547;50.146;8.174;2023-11-19T05:31:34;0.80;;;0.70;;
1777;SDS011;71547;50.146;8.174;2023-11-19T05:34:04;0.80;;;0.70;;
1777;SDS011;71547;50.146;8.174;2023-11-19T05:36:31;0.80;;;0.70;;
1777;SDS011;71547;50.146;8.174;2023-11-19T05:38:59;0.80;;;0.63;;
1777;SDS011;71547;50.146;8.174;2023-11-19T05:41:26;0.80;;;0.80;;
1777;SDS011;71547;50.146;8.174;2023-11-19T05:43:53;0.80;;;0.77;;
1777;SDS011;71547;50.146;8.174;2023-11-19T05:46:20;1.00;;;0.77;;
1777;SDS011;71547;50.146;8.174;2023-11-19T05:48:48;0.90;;;0.80;;
1777;SDS011;71547;50.146;8.174;2023-11-19T05:51:16;1.00;;;0.90;;
1777;SDS011;71547;50.146;8.174;2023-11-19T05:53:44;1.20;;;1.10;;
1777;SDS011;71547;50.146;8.174;2023-11-19T05:56:16;2.10;;;1.37;;
1777;SDS011;71547;50.146;8.174;2023-11-19T05:58:47;1.40;;;1.30;;
1777;SDS011;71547;50.146;8.174;2023-11-19T06:01:15;1.40;;;1.30;;
1777;SDS011;71547;50.146;8.174;2023-11-19T06:03:43;1.40;;;1.30;;
1777;SDS011;71547;50.146;8.174;2023-11-19T06:06:14;1.10;;;1.00;;
1777;SDS011;71547;50.146;8.174;2023-11-19T06:08:42;1.20;;;1.10;;
1777;SDS011;71547;50.146;8.174;2023-11-19T06:11:09;2.13;;;1.50;;
1777;SDS011;71547;50.146;8.174;2023-11-19T06:13:41;1.50;;;1.40;;
1777;SDS011;71547;50.146;8.174;2023-11-19T06:16:09;1.50;;;1.40;;
1777;SDS011;71547;50.146;8.174;2023-11-19T06:18:36;1.80;;;1.70;;
1777;SDS011;71547;50.146;8.174;2023-11-19T06:21:04;1.43;;;1.33;;
1777;SDS011;71547;50.146;8.174;2023-11-19T06:23:31;1.43;;;1.33;;
1777;SDS011;71547;50.146;8.174;2023-11-19T06:26:00;1.37;;;1.10;;
1777;SDS011;71547;50.146;8.174;2023-11-19T06:28:27;1.27;;;1.17;;
1777;SDS011;71547;50.146;8.174;2023-11-19T06:30:54;1.60;;;1.50;;
1777;SDS011;71547;50.146;8.174;2023-11-19T06:33:22;2.00;;;1.90;;
1777;SDS011;71547;50.146;8.174;2023-11-19T06:35:50;1.43;;;1.33;;
1777;SDS011;71547;50.146;8.174;2023-11-19T06:38:18;1.23;;;1.13;;
1777;SDS011;71547;50.146;8.174;2023-11-19T06:40:45;2.30;;;1.17;;
1777;SDS011;71547;50.146;8.174;2023-11-19T06:43:13;1.10;;;1.00;;
1777;SDS011;71547;50.146;8.174;2023-11-19T06:45:41;1.40;;;1.30;;
1777;SDS011;71547;50.146;8.174;2023-11-19T06:48:08;2.13;;;1.30;;
1777;SDS011;71547;50.146;8.174;2023-11-19T06:50:36;1.20;;;1.10;;
1777;SDS011;71547;50.146;8.174;2023-11-19T06:53:03;1.20;;;1.10;;
1777;SDS011;71547;50.146;8.174;2023-11-19T06:55:32;1.40;;;1.30;;
1777;SDS011;71547;50.146;8.174;2023-11-19T06:57:59;2.23;;;2.07;;
1777;SDS011;71547;50.146;8.174;2023-11-19T07:00:30;2.67;;;2.20;;
1777;SDS011;71547;50.146;8.174;2023-11-19T07:02:59;4.37;;;2.27;;
1777;SDS011;71547;50.146;8.174;2023-11-19T07:05:26;1.63;;;1.53;;
1777;SDS011;71547;50.146;8.174;2023-11-19T07:07:54;3.20;;;2.07;;
1777;SDS011;71547;50.146;8.174;2023-11-19T07:10:22;2.47;;;2.03;;
1777;SDS011;71547;50.146;8.174;2023-11-19T07:12:49;2.40;;;2.20;;
1777;SDS011;71547;50.146;8.174;2023-11-19T07:15:16;3.57;;;2.00;;
1777;SDS011;71547;50.146;8.174;2023-11-19T07:17:45;2.40;;;1.80;;
1777;SDS011;71547;50.146;8.174;2023-11-19T07:20:26;3.77;;;1.90;;
1777;SDS011;71547;50.146;8.174;2023-11-19T07:22:54;2.83;;;1.70;;
1777;SDS011;71547;50.146;8.174;2023-11-19T07:25:24;7.00;;;2.23;;
1777;SDS011;71547;50.146;8.174;2023-11-19T07:27:51;2.40;;;1.60;;
1777;SDS011;71547;50.146;8.174;2023-11-19T07:30:19;3.50;;;2.00;;
1777;SDS011;71547;50.146;8.174;2023-11-19T07:32:47;3.30;;;1.93;;
1777;SDS011;71547;50.146;8.174;2023-11-19T07:35:14;2.87;;;1.77;;
1777;SDS011;71547;50.146;8.174;2023-11-19T07:37:42;5.53;;;2.07;;
1777;SDS011;71547;50.146;8.174;2023-11-19T07:40:09;4.67;;;1.83;;
1777;SDS011;71547;50.146;8.174;2023-11-19T07:42:37;3.37;;;1.90;;
1777;SDS011;71547;50.146;8.174;2023-11-19T07:45:05;2.30;;;2.10;;
1777;SDS011;71547;50.146;8.174;2023-11-19T07:47:33;2.20;;;1.90;;
1777;SDS011;71547;50.146;8.174;2023-11-19T07:50:02;8.40;;;2.23;;
1777;SDS011;71547;50.146;8.174;2023-11-19T07:52:30;7.90;;;2.17;;
1777;SDS011;71547;50.146;8.174;2023-11-19T07:54:57;2.50;;;2.00;;
1777;SDS011;71547;50.146;8.174;2023-11-19T07:57:24;2.73;;;1.70;;
1777;SDS011;71547;50.146;8.174;2023-11-19T07:59:53;1.97;;;1.80;;
1777;SDS011;71547;50.146;8.174;2023-11-19T08:02:20;4.60;;;2.20;;
1777;SDS011;71547;50.146;8.174;2023-11-19T08:04:48;8.83;;;2.57;;
1777;SDS011;71547;50.146;8.174;2023-11-19T08:07:19;4.60;;;1.80;;
1777;SDS011;71547;50.146;8.174;2023-11-19T08:09:46;3.77;;;2.37;;
1777;SDS011;71547;50.146;8.174;2023-11-19T08:12:14;2.53;;;2.10;;
1777;SDS011;71547;50.146;8.174;2023-11-19T08:14:43;4.10;;;2.47;;
1777;SDS011;71547;50.146;8.174;2023-11-19T08:17:10;3.10;;;2.27;;
1777;SDS011;71547;50.146;8.174;2023-11-19T08:19:37;7.20;;;3.03;;
1777;SDS011;71547;50.146;8.174;2023-11-19T08:22:05;6.40;;;3.23;;
1777;SDS011;71547;50.146;8.174;2023-11-19T08:24:33;3.17;;;2.27;;
1777;SDS011;71547;50.146;8.174;2023-11-19T08:27:00;4.07;;;2.00;;
1777;SDS011;71547;50.146;8.174;2023-11-19T08:29:28;7.00;;;3.40;;
1777;SDS011;71547;50.146;8.174;2023-11-19T08:31:56;5.83;;;2.90;;
1777;SDS011;71547;50.146;8.174;2023-11-19T08:34:23;3.37;;;3.07;;
1777;SDS011;71547;50.146;8.174;2023-11-19T08:36:51;9.50;;;4.30;;
1777;SDS011;71547;50.146;8.174;2023-11-19T08:39:19;6.53;;;3.80;;
1777;SDS011;71547;50.146;8.174;2023-11-19T08:41:51;6.43;;;2.57;;
1777;SDS011;71547;50.146;8.174;2023-11-19T08:44:18;5.83;;;2.40;;
1777;SDS011;71547;50.146;8.174;2023-11-19T08:46:47;4.70;;;2.13;;
1777;SDS011;71547;50.146;8.174;2023-11-19T08:49:14;2.80;;;2.10;;
1777;SDS011;71547;50.146;8.174;2023-11-19T08:51:41;4.20;;;2.50;;
1777;SDS011;71547;50.146;8.174;2023-11-19T08:54:09;3.50;;;1.90;;
1777;SDS011;71547;50.146;8.174;2023-11-19T08:56:37;8.97;;;2.30;;
1777;SDS011;71547;50.146;8.174;2023-11-19T08:59:07;5.10;;;2.37;;
1777;SDS011;71547;50.146;8.174;2023-11-19T09:01:35;5.03;;;2.23;;
1777;SDS011;71547;50.146;8.174;2023-11-19T09:04:02;6.33;;;2.00;;
1777;SDS011;71547;50.146;8.174;2023-11-19T09:06:31;8.73;;;2.47;;
1777;SDS011;71547;50.146;8.174;2023-11-19T09:08:58;7.00;;;2.03;;
1777;SDS011;71547;50.146;8.174;2023-11-19T09:11:29;4.70;;;2.20;;
1777;SDS011;71547;50.146;8.174;2023-11-19T09:13:56;4.43;;;2.03;;
1777;SDS011;71547;50.146;8.174;2023-11-19T09:16:25;9.70;;;2.33;;
1777;SDS011;71547;50.146;8.174;2023-11-19T09:18:52;10.50;;;3.00;;
1777;SDS011;71547;50.146;8.174;2023-11-19T09:21:19;5.80;;;2.03;;
1777;SDS011;71547;50.146;8.174;2023-11-19T09:23:46;6.50;;;2.10;;
1777;SDS011;71547;50.146;8.174;2023-11-19T09:26:15;3.20;;;2.20;;
1777;SDS011;71547;50.146;8.174;2023-11-19T09:28:42;4.40;;;2.07;;
1777;SDS011;71547;50.146;8.174;2023-11-19T09:31:12;8.00;;;2.10;;
1777;SDS011;71547;50.146;8.174;2023-11-19T09:33:41;3.50;;;1.90;;
1777;SDS011;71547;50.146;8.174;2023-11-19T09:36:09;4.63;;;1.57;;
1777;SDS011;71547;50.146;8.174;2023-11-19T09:38:39;6.10;;;2.00;;
1777;SDS011;71547;50.146;8.174;2023-11-19T09:41:07;6.93;;;2.40;;
1777;SDS011;71547;50.146;8.174;2023-11-19T09:43:38;8.63;;;2.47;;
1777;SDS011;71547;50.146;8.174;2023-11-19T09:46:07;7.03;;;2.80;;
1777;SDS011;71547;50.146;8.174;2023-11-19T09:48:38;6.90;;;2.53;;
1777;SDS011;71547;50.146;8.174;2023-11-19T09:51:08;2.50;;;1.77;;
1777;SDS011;71547;50.146;8.174;2023-11-19T09:53:36;11.53;;;3.23;;
1777;SDS011;71547;50.146;8.174;2023-11-19T09:56:05;6.40;;;2.17;;
1777;SDS011;71547;50.146;8.174;2023-11-19T09:58:34;3.73;;;1.97;;
1777;SDS011;71547;50.146;8.174;2023-11-19T10:01:02;8.57;;;2.50;;
1777;SDS011;71547;50.146;8.174;2023-11-19T10:03:36;3.67;;;1.70;;
1777;SDS011;71547;50.146;8.174;2023-11-19T10:06:08;5.20;;;2.00;;
1777;SDS011;71547;50.146;8.174;2023-11-19T10:08:37;4.00;;;1.83;;
1777;SDS011;71547;50.146;8.174;2023-11-19T10:11:05;7.97;;;1.87;;
1777;SDS011;71547;50.146;8.174;2023-11-19T10:13:33;3.90;;;1.77;;
1777;SDS011;71547;50.146;8.174;2023-11-19T10:16:07;7.03;;;2.67;;
1777;SDS011;71547;50.146;8.174;2023-11-19T10:18:37;5.70;;;2.33;;
1777;SDS011;71547;50.146;8.174;2023-11-19T10:21:10;6.10;;;2.10;;
1777;SDS011;71547;50.146;8.174;2023-11-19T10:23:49;7.57;;;2.10;;
1777;SDS011;71547;50.146;8.174;2023-11-19T10:26:18;8.00;;;2.30;;
1777;SDS011;71547;50.146;8.174;2023-11-19T10:28:47;8.60;;;2.70;;
1777;SDS011;71547;50.146;8.174;2023-11-19T10:31:15;6.57;;;2.07;;
1777;SDS011;71547;50.146;8.174;2023-11-19T10:33:44;10.70;;;2.20;;
1777;SDS011;71547;50.146;8.174;2023-11-19T10:36:13;5.60;;;1.67;;
1777;SDS011;71547;50.146;8.174;2023-11-19T10:38:41;7.87;;;2.53;;
1777;SDS011;71547;50.146;8.174;2023-11-19T10:41:28;6.63;;;2.37;;
1777;SDS011;71547;50.146;8.174;2023-11-19T10:43:57;7.47;;;2.30;;
1777;SDS011;71547;50.146;8.174;2023-11-19T10:46:36;4.00;;;2.00;;
1777;SDS011;71547;50.146;8.174;2023-11-19T10:49:05;10.53;;;2.90;;
1777;SDS011;71547;50.146;8.174;2023-11-19T10:51:34;10.93;;;1.77;;
1777;SDS011;71547;50.146;8.174;2023-11-19T10:54:02;10.23;;;2.60;;
1777;SDS011;71547;50.146;8.174;2023-11-19T10:56:34;11.77;;;3.93;;
1777;SDS011;71547;50.146;8.174;2023-11-19T10:59:02;5.93;;;2.13;;
1777;SDS011;71547;50.146;8.174;2023-11-19T11:01:48;8.73;;;2.40;;
1777;SDS011;71547;50.146;8.174;2023-11-19T11:04:22;7.27;;;2.20;;
1777;SDS011;71547;50.146;8.174;2023-11-19T11:06:54;6.13;;;2.20;;
1777;SDS011;71547;50.146;8.174;2023-11-19T11:09:22;6.57;;;1.87;;
1777;SDS011;71547;50.146;8.174;2023-11-19T11:11:49;5.37;;;2.47;;
1777;SDS011;71547;50.146;8.174;2023-11-19T11:14:18;7.07;;;2.87;;
1777;SDS011;71547;50.146;8.174;2023-11-19T11:16:48;9.43;;;2.87;;
1777;SDS011;71547;50.146;8.174;2023-11-19T11:19:17;10.20;;;2.40;;
1777;SDS011;71547;50.146;8.174;2023-11-19T11:21:45;9.07;;;2.63;;
1777;SDS011;71547;50.146;8.174;2023-11-19T11:24:35;6.70;;;2.17;;
1777;SDS011;71547;50.146;8.174;2023-11-19T11:27:37;16.03;;;3.10;;
1777;SDS011;71547;50.146;8.174;2023-11-19T11:30:25;5.57;;;3.20;;
1777;SDS011;71547;50.146;8.174;2023-11-19T11:33:29;8.53;;;2.03;;
1777;SDS011;71547;50.146;8.174;2023-11-19T11:36:11;10.07;;;2.13;;
1777;SDS011;71547;50.146;8.174;2023-11-19T11:38:47;11.10;;;2.23;;
1777;SDS011;71547;50.146;8.174;2023-11-19T11:41:17;10.47;;;2.40;;
1777;SDS011;71547;50.146;8.174;2023-11-19T11:43:46;8.73;;;3.10;;
1777;SDS011;71547;50.146;8.174;2023-11-19T11:49:27;6.80;;;2.20;;
1777;SDS011;71547;50.146;8.174;2023-11-19T11:51:59;12.47;;;3.40;;
1777;SDS011;71547;50.146;8.174;2023-11-19T11:54:32;6.70;;;2.20;;
1777;SDS011;71547;50.146;8.174;2023-11-19T11:57:08;6.63;;;2.10;;
1777;SDS011;71547;50.146;8.174;2023-11-19T11:59:45;9.87;;;2.50;;
1777;SDS011;71547;50.146;8.174;2023-11-19T12:02:15;9.40;;;2.40;;
1777;SDS011;71547;50.146;8.174;2023-11-19T12:04:46;8.73;;;2.60;;
1777;SDS011;71547;50.146;8.174;2023-11-19T12:07:16;7.80;;;2.43;;
1777;SDS011;71547;50.146;8.174;2023-11-19T12:09:48;7.73;;;2.50;;
1777;SDS011;71547;50.146;8.174;2023-11-19T12:12:22;6.83;;;2.40;;
1777;SDS011;71547;50.146;8.174;2023-11-19T12:15:03;10.40;;;2.40;;
1777;SDS011;71547;50.146;8.174;2023-11-19T12:17:48;6.13;;;2.50;;
1777;SDS011;71547;50.146;8.174;2023-11-19T12:20:17;6.93;;;2.27;;
1777;SDS011;71547;50.146;8.174;2023-11-19T12:22:48;4.37;;;1.87;;
1777;SDS011;71547;50.146;8.174;2023-11-19T12:25:18;4.87;;;2.10;;
1777;SDS011;71547;50.146;8.174;2023-11-19T12:27:47;7.43;;;2.27;;
1777;SDS011;71547;50.146;8.174;2023-11-19T12:30:16;6.30;;;1.90;;
1777;SDS011;71547;50.146;8.174;2023-11-19T12:32:45;7.73;;;2.43;;
1777;SDS011;71547;50.146;8.174;2023-11-19T12:35:13;4.67;;;1.97;;
1777;SDS011;71547;50.146;8.174;2023-11-19T12:37:41;4.30;;;1.87;;
1777;SDS011;71547;50.146;8.174;2023-11-19T12:40:12;7.00;;;2.00;;
1777;SDS011;71547;50.146;8.174;2023-11-19T12:42:43;8.47;;;1.80;;
1777;SDS011;71547;50.146;8.174;2023-11-19T12:45:10;5.97;;;1.87;;
1777;SDS011;71547;50.146;8.174;2023-11-19T12:47:39;7.50;;;2.20;;
1777;SDS011;71547;50.146;8.174;2023-11-19T12:50:07;6.40;;;2.10;;
1777;SDS011;71547;50.146;8.174;2023-11-19T12:52:36;9.17;;;2.40;;
1777;SDS011;71547;50.146;8.174;2023-11-19T12:55:04;6.07;;;2.03;;
1777;SDS011;71547;50.146;8.174;2023-11-19T12:57:39;7.13;;;1.90;;
1777;SDS011;71547;50.146;8.174;2023-11-19T13:00:17;8.60;;;2.57;;
1777;SDS011;71547;50.146;8.174;2023-11-19T13:02:49;9.07;;;2.37;;
1777;SDS011;71547;50.146;8.174;2023-11-19T13:05:24;9.90;;;2.30;;
1777;SDS011;71547;50.146;8.174;2023-11-19T13:08:00;5.53;;;2.40;;
1777;SDS011;71547;50.146;8.174;2023-11-19T13:10:29;3.33;;;1.90;;
1777;SDS011;71547;50.146;8.174;2023-11-19T13:12:59;6.87;;;1.90;;
1777;SDS011;71547;50.146;8.174;2023-11-19T13:15:33;15.13;;;2.10;;
1777;SDS011;71547;50.146;8.174;2023-11-19T13:18:01;6.40;;;2.10;;
1777;SDS011;71547;50.146;8.174;2023-11-19T13:20:29;5.60;;;1.83;;
1777;SDS011;71547;50.146;8.174;2023-11-19T13:22:56;9.30;;;2.30;;
1777;SDS011;71547;50.146;8.174;2023-11-19T13:25:25;2.90;;;1.70;;
1777;SDS011;71547;50.146;8.174;2023-11-19T13:27:52;9.57;;;2.13;;
1777;SDS011;71547;50.146;8.174;2023-11-19T13:30:20;7.57;;;2.00;;
1777;SDS011;71547;50.146;8.174;2023-11-19T13:32:52;10.50;;;2.17;;
1777;SDS011;71547;50.146;8.174;2023-11-19T13:35:22;4.47;;;1.80;;
1777;SDS011;71547;50.146;8.174;2023-11-19T13:37:49;5.83;;;2.27;;
1777;SDS011;71547;50.146;8.174;2023-11-19T13:40:18;8.40;;;2.23;;
1777;SDS011;71547;50.146;8.174;2023-11-19T13:42:46;2.80;;;1.37;;
1777;SDS011;71547;50.146;8.174;2023-11-19T13:45:14;10.57;;;3.10;;
1777;SDS011;71547;50.146;8.174;2023-11-19T13:47:42;8.30;;;2.10;;
1777;SDS011;71547;50.146;8.174;2023-11-19T13:50:13;8.83;;;1.87;;
1777;SDS011;71547;50.146;8.174;2023-11-19T13:52:42;3.97;;;1.83;;
1777;SDS011;71547;50.146;8.174;2023-11-19T13:55:12;1.90;;;1.50;;
1777;SDS011;71547;50.146;8.174;2023-11-19T13:57:40;5.10;;;1.67;;
1777;SDS011;71547;50.146;8.174;2023-11-19T14:00:09;3.20;;;1.90;;
1777;SDS011;71547;50.146;8.174;2023-11-19T14:02:43;14.63;;;3.10;;
1777;SDS011;71547;50.146;8.174;2023-11-19T14:05:11;4.90;;;1.67;;
1777;SDS011;71547;50.146;8.174;2023-11-19T14:07:41;8.73;;;2.07;;
1777;SDS011;71547;50.146;8.174;2023-11-19T14:10:09;8.10;;;2.03;;
1777;SDS011;71547;50.146;8.174;2023-11-19T14:12:37;6.80;;;1.70;;
1777;SDS011;71547;50.146;8.174;2023-11-19T14:15:05;6.60;;;1.73;;
1777;SDS011;71547;50.146;8.174;2023-11-19T14:17:35;8.53;;;1.93;;
1777;SDS011;71547;50.146;8.174;2023-11-19T14:20:03;10.33;;;1.77;;
1777;SDS011;71547;50.146;8.174;2023-11-19T14:22:41;2.47;;;1.40;;
1777;SDS011;71547;50.146;8.174;2023-11-19T14:25:10;6.87;;;1.83;;
1777;SDS011;71547;50.146;8.174;2023-11-19T14:27:38;9.10;;;2.40;;
1777;SDS011;71547;50.146;8.174;2023-11-19T14:30:06;9.20;;;2.00;;
1777;SDS011;71547;50.146;8.174;2023-11-19T14:32:37;7.30;;;2.70;;
1777;SDS011;71547;50.146;8.174;2023-11-19T14:35:06;8.00;;;2.33;;
1777;SDS011;71547;50.146;8.174;2023-11-19T14:37:34;6.10;;;2.13;;
1777;SDS011;71547;50.146;8.174;2023-11-19T14:40:03;4.40;;;1.53;;
1777;SDS011;71547;50.146;8.174;2023-11-19T14:42:33;6.97;;;1.80;;
1777;SDS011;71547;50.146;8.174;2023-11-19T14:45:00;4.93;;;2.00;;
1777;SDS011;71547;50.146;8.174;2023-11-19T14:47:27;6.20;;;1.77;;
1777;SDS011;71547;50.146;8.174;2023-11-19T14:49:55;6.83;;;2.63;;
1777;SDS011;71547;50.146;8.174;2023-11-19T14:52:22;4.83;;;1.80;;
1777;SDS011;71547;50.146;8.174;2023-11-19T14:54:50;5.73;;;2.43;;
1777;SDS011;71547;50.146;8.174;2023-11-19T14:57:21;5.00;;;1.80;;
1777;SDS011;71547;50.146;8.174;2023-11-19T14:59:48;6.60;;;2.03;;
1777;SDS011;71547;50.146;8.174;2023-11-19T15:02:16;8.07;;;2.00;;
1777;SDS011;71547;50.146;8.174;2023-11-19T15:04:44;4.80;;;2.10;;
1777;SDS011;71547;50.146;8.174;2023-11-19T15:07:11;7.23;;;2.10;;
1777;SDS011;71547;50.146;8.174;2023-11-19T15:09:38;4.13;;;1.83;;
1777;SDS011;71547;50.146;8.174;2023-11-19T15:12:06;5.40;;;2.10;;
1777;SDS011;71547;50.146;8.174;2023-11-19T15:14:34;10.13;;;2.80;;
1777;SDS011;71547;50.146;8.174;2023-11-19T15:17:02;2.80;;;1.70;;
1777;SDS011;71547;50.146;8.174;2023-11-19T15:19:29;7.40;;;1.73;;